Powder Springs, Georgia
Current Conditions -  °F | °C
As of 1:58 PM on Friday 28 Nov 2014 (Local Time) from KMGE Reporting Station
Clear Clear  
Wind Chill: 46°   Ceiling: Unl
Heat Index: 46°   Visibility: 10mi
Dew Point: 16°   Wind: 3mph
Humidity: 31%   Direction: 240°WSW
Pressure: 30.31"   Gusts: NA
Location:  33.86°N, 84.68°W
Report Text: KMGE 281858Z 24003KT 10SM CLR 08/M09 A3031 RMK AO2A SLP272 T00761087 $
Loading
Personal Weather Stations






























Interactive Weather Map New forecast layout! Learn more

10-Day Weather Forecast

Advertisements
Track Severe Weather on mobile